sensor_id;sensor_type;location;lat;lon;timestamp;P1;durP1;ratioP1;P2;durP2;ratioP2
16579;SDS011;8402;51.466;6.806;2023-11-19T00:01:10;10.87;;;5.40;;
16579;SDS011;8402;51.466;6.806;2023-11-19T00:03:40;11.07;;;5.40;;
16579;SDS011;8402;51.466;6.806;2023-11-19T00:06:10;8.97;;;5.20;;
16579;SDS011;8402;51.466;6.806;2023-11-19T00:08:43;8.93;;;5.37;;
16579;SDS011;8402;51.466;6.806;2023-11-19T00:11:13;9.50;;;5.73;;
16579;SDS011;8402;51.466;6.806;2023-11-19T00:13:43;9.87;;;5.20;;
16579;SDS011;8402;51.466;6.806;2023-11-19T00:16:13;9.47;;;5.07;;
16579;SDS011;8402;51.466;6.806;2023-11-19T00:18:43;7.53;;;5.30;;
16579;SDS011;8402;51.466;6.806;2023-11-19T00:21:13;10.97;;;5.77;;
16579;SDS011;8402;51.466;6.806;2023-11-19T00:23:45;10.10;;;4.53;;
16579;SDS011;8402;51.466;6.806;2023-11-19T00:26:15;8.83;;;5.70;;
16579;SDS011;8402;51.466;6.806;2023-11-19T00:28:45;12.83;;;5.13;;
16579;SDS011;8402;51.466;6.806;2023-11-19T00:31:17;8.97;;;5.00;;
16579;SDS011;8402;51.466;6.806;2023-11-19T00:33:48;6.97;;;4.87;;
16579;SDS011;8402;51.466;6.806;2023-11-19T00:36:18;9.67;;;5.07;;
16579;SDS011;8402;51.466;6.806;2023-11-19T00:38:53;7.97;;;4.40;;
16579;SDS011;8402;51.466;6.806;2023-11-19T00:41:23;10.67;;;4.93;;
16579;SDS011;8402;51.466;6.806;2023-11-19T00:43:53;7.73;;;4.70;;
16579;SDS011;8402;51.466;6.806;2023-11-19T00:46:23;8.90;;;4.77;;
16579;SDS011;8402;51.466;6.806;2023-11-19T00:48:54;9.13;;;4.30;;
16579;SDS011;8402;51.466;6.806;2023-11-19T00:51:26;7.10;;;4.67;;
16579;SDS011;8402;51.466;6.806;2023-11-19T00:54:00;9.07;;;4.87;;
16579;SDS011;8402;51.466;6.806;2023-11-19T00:56:30;10.30;;;4.30;;
16579;SDS011;8402;51.466;6.806;2023-11-19T00:59:00;7.23;;;4.40;;
16579;SDS011;8402;51.466;6.806;2023-11-19T01:01:30;6.77;;;4.10;;
16579;SDS011;8402;51.466;6.806;2023-11-19T01:04:00;9.00;;;4.97;;
16579;SDS011;8402;51.466;6.806;2023-11-19T01:06:30;9.63;;;4.57;;
16579;SDS011;8402;51.466;6.806;2023-11-19T01:09:03;9.00;;;4.73;;
16579;SDS011;8402;51.466;6.806;2023-11-19T01:11:35;11.77;;;5.20;;
16579;SDS011;8402;51.466;6.806;2023-11-19T01:14:05;8.40;;;4.93;;
16579;SDS011;8402;51.466;6.806;2023-11-19T01:16:35;7.47;;;4.83;;
16579;SDS011;8402;51.466;6.806;2023-11-19T01:19:05;9.07;;;4.70;;
16579;SDS011;8402;51.466;6.806;2023-11-19T01:21:43;11.43;;;5.20;;
16579;SDS011;8402;51.466;6.806;2023-11-19T01:24:15;10.10;;;4.93;;
16579;SDS011;8402;51.466;6.806;2023-11-19T01:26:46;9.07;;;4.73;;
16579;SDS011;8402;51.466;6.806;2023-11-19T01:29:16;9.13;;;4.53;;
16579;SDS011;8402;51.466;6.806;2023-11-19T01:31:46;6.73;;;4.20;;
16579;SDS011;8402;51.466;6.806;2023-11-19T01:34:17;6.80;;;4.40;;
16579;SDS011;8402;51.466;6.806;2023-11-19T01:36:47;7.00;;;4.13;;
16579;SDS011;8402;51.466;6.806;2023-11-19T01:39:20;6.87;;;4.07;;
16579;SDS011;8402;51.466;6.806;2023-11-19T01:41:50;9.70;;;4.50;;
16579;SDS011;8402;51.466;6.806;2023-11-19T01:44:17;9.77;;;4.73;;
16579;SDS011;8402;51.466;6.806;2023-11-19T01:46:47;11.00;;;6.00;;
16579;SDS011;8402;51.466;6.806;2023-11-19T01:49:19;11.10;;;5.03;;
16579;SDS011;8402;51.466;6.806;2023-11-19T01:51:51;11.37;;;5.47;;
16579;SDS011;8402;51.466;6.806;2023-11-19T01:54:24;11.67;;;4.93;;
16579;SDS011;8402;51.466;6.806;2023-11-19T01:56:54;10.07;;;4.60;;
16579;SDS011;8402;51.466;6.806;2023-11-19T01:59:27;14.50;;;5.30;;
16579;SDS011;8402;51.466;6.806;2023-11-19T02:01:57;15.20;;;6.37;;
16579;SDS011;8402;51.466;6.806;2023-11-19T02:04:27;23.03;;;7.77;;
16579;SDS011;8402;51.466;6.806;2023-11-19T02:06:58;19.50;;;7.33;;
16579;SDS011;8402;51.466;6.806;2023-11-19T02:09:31;18.80;;;7.97;;
16579;SDS011;8402;51.466;6.806;2023-11-19T02:12:01;25.27;;;7.57;;
16579;SDS011;8402;51.466;6.806;2023-11-19T02:14:31;15.00;;;5.87;;
16579;SDS011;8402;51.466;6.806;2023-11-19T02:17:01;19.20;;;6.10;;
16579;SDS011;8402;51.466;6.806;2023-11-19T02:19:31;21.40;;;7.43;;
16579;SDS011;8402;51.466;6.806;2023-11-19T02:22:01;21.50;;;7.63;;
16579;SDS011;8402;51.466;6.806;2023-11-19T02:24:34;29.33;;;8.40;;
16579;SDS011;8402;51.466;6.806;2023-11-19T02:27:07;15.20;;;6.07;;
16579;SDS011;8402;51.466;6.806;2023-11-19T02:29:46;17.93;;;6.30;;
16579;SDS011;8402;51.466;6.806;2023-11-19T02:32:17;25.03;;;7.70;;
16579;SDS011;8402;51.466;6.806;2023-11-19T02:34:47;26.00;;;8.33;;
16579;SDS011;8402;51.466;6.806;2023-11-19T02:37:17;27.97;;;8.20;;
16579;SDS011;8402;51.466;6.806;2023-11-19T02:39:46;22.13;;;7.17;;
16579;SDS011;8402;51.466;6.806;2023-11-19T02:42:16;27.00;;;8.03;;
16579;SDS011;8402;51.466;6.806;2023-11-19T02:44:49;28.17;;;7.37;;
16579;SDS011;8402;51.466;6.806;2023-11-19T02:47:19;26.60;;;6.93;;
16579;SDS011;8402;51.466;6.806;2023-11-19T02:49:50;20.00;;;6.47;;
16579;SDS011;8402;51.466;6.806;2023-11-19T02:52:20;13.40;;;4.73;;
16579;SDS011;8402;51.466;6.806;2023-11-19T02:54:51;20.67;;;5.40;;
16579;SDS011;8402;51.466;6.806;2023-11-19T02:57:22;18.80;;;5.00;;
16579;SDS011;8402;51.466;6.806;2023-11-19T02:59:54;21.53;;;4.30;;
16579;SDS011;8402;51.466;6.806;2023-11-19T03:02:26;11.97;;;3.40;;
16579;SDS011;8402;51.466;6.806;2023-11-19T03:05:00;9.50;;;2.63;;
16579;SDS011;8402;51.466;6.806;2023-11-19T03:07:31;16.57;;;3.50;;
16579;SDS011;8402;51.466;6.806;2023-11-19T03:10:01;10.90;;;3.07;;
16579;SDS011;8402;51.466;6.806;2023-11-19T03:12:32;9.10;;;2.93;;
16579;SDS011;8402;51.466;6.806;2023-11-19T03:15:05;6.60;;;2.50;;
16579;SDS011;8402;51.466;6.806;2023-11-19T03:17:36;18.07;;;3.10;;
16579;SDS011;8402;51.466;6.806;2023-11-19T03:20:08;14.20;;;3.23;;
16579;SDS011;8402;51.466;6.806;2023-11-19T03:22:41;12.67;;;2.77;;
16579;SDS011;8402;51.466;6.806;2023-11-19T03:25:12;10.77;;;2.87;;
16579;SDS011;8402;51.466;6.806;2023-11-19T03:27:42;12.37;;;2.90;;
16579;SDS011;8402;51.466;6.806;2023-11-19T03:30:14;10.70;;;3.40;;
16579;SDS011;8402;51.466;6.806;2023-11-19T03:32:44;11.20;;;2.83;;
16579;SDS011;8402;51.466;6.806;2023-11-19T03:35:14;11.87;;;2.47;;
16579;SDS011;8402;51.466;6.806;2023-11-19T03:37:44;15.67;;;2.50;;
16579;SDS011;8402;51.466;6.806;2023-11-19T03:40:14;9.40;;;2.63;;
16579;SDS011;8402;51.466;6.806;2023-11-19T03:42:45;12.50;;;2.50;;
16579;SDS011;8402;51.466;6.806;2023-11-19T03:45:18;16.73;;;2.83;;
16579;SDS011;8402;51.466;6.806;2023-11-19T03:47:47;19.13;;;3.17;;
16579;SDS011;8402;51.466;6.806;2023-11-19T03:50:18;13.13;;;3.03;;
16579;SDS011;8402;51.466;6.806;2023-11-19T03:52:49;17.90;;;2.90;;
16579;SDS011;8402;51.466;6.806;2023-11-19T03:55:19;14.83;;;2.53;;
16579;SDS011;8402;51.466;6.806;2023-11-19T03:57:49;12.43;;;2.70;;
16579;SDS011;8402;51.466;6.806;2023-11-19T04:00:22;17.10;;;2.87;;
16579;SDS011;8402;51.466;6.806;2023-11-19T04:02:52;11.07;;;2.67;;
16579;SDS011;8402;51.466;6.806;2023-11-19T04:05:27;11.87;;;2.87;;
16579;SDS011;8402;51.466;6.806;2023-11-19T04:07:57;20.00;;;3.17;;
16579;SDS011;8402;51.466;6.806;2023-11-19T04:10:27;14.03;;;2.73;;
16579;SDS011;8402;51.466;6.806;2023-11-19T04:12:57;10.40;;;2.57;;
16579;SDS011;8402;51.466;6.806;2023-11-19T04:15:30;16.47;;;3.20;;
16579;SDS011;8402;51.466;6.806;2023-11-19T04:18:00;8.90;;;2.20;;
16579;SDS011;8402;51.466;6.806;2023-11-19T04:20:30;12.83;;;2.37;;
16579;SDS011;8402;51.466;6.806;2023-11-19T04:23:00;17.30;;;2.90;;
16579;SDS011;8402;51.466;6.806;2023-11-19T04:25:30;14.33;;;2.53;;
16579;SDS011;8402;51.466;6.806;2023-11-19T04:28:00;17.60;;;2.77;;
16579;SDS011;8402;51.466;6.806;2023-11-19T04:30:33;10.13;;;2.50;;
16579;SDS011;8402;51.466;6.806;2023-11-19T04:33:04;15.57;;;2.57;;
16579;SDS011;8402;51.466;6.806;2023-11-19T04:35:34;18.90;;;2.97;;
16579;SDS011;8402;51.466;6.806;2023-11-19T04:38:04;16.77;;;3.10;;
16579;SDS011;8402;51.466;6.806;2023-11-19T04:40:34;15.77;;;3.30;;
16579;SDS011;8402;51.466;6.806;2023-11-19T04:43:04;11.93;;;2.80;;
16579;SDS011;8402;51.466;6.806;2023-11-19T04:45:36;22.17;;;3.63;;
16579;SDS011;8402;51.466;6.806;2023-11-19T04:48:06;12.87;;;2.93;;
16579;SDS011;8402;51.466;6.806;2023-11-19T04:50:36;17.53;;;2.97;;
16579;SDS011;8402;51.466;6.806;2023-11-19T04:54:07;14.20;;;2.97;;
16579;SDS011;8402;51.466;6.806;2023-11-19T04:57:38;16.10;;;3.20;;
16579;SDS011;8402;51.466;6.806;2023-11-19T05:01:12;17.30;;;3.23;;
16579;SDS011;8402;51.466;6.806;2023-11-19T05:04:42;21.00;;;3.03;;
16579;SDS011;8402;51.466;6.806;2023-11-19T05:07:19;21.13;;;2.77;;
16579;SDS011;8402;51.466;6.806;2023-11-19T05:09:48;19.70;;;2.83;;
16579;SDS011;8402;51.466;6.806;2023-11-19T05:12:18;15.43;;;3.13;;
16579;SDS011;8402;51.466;6.806;2023-11-19T05:14:49;16.63;;;2.87;;
16579;SDS011;8402;51.466;6.806;2023-11-19T05:17:22;16.50;;;2.73;;
16579;SDS011;8402;51.466;6.806;2023-11-19T05:19:52;16.90;;;2.80;;
16579;SDS011;8402;51.466;6.806;2023-11-19T05:22:22;18.03;;;2.93;;
16579;SDS011;8402;51.466;6.806;2023-11-19T05:24:52;12.63;;;3.03;;
16579;SDS011;8402;51.466;6.806;2023-11-19T05:27:22;20.23;;;3.40;;
16579;SDS011;8402;51.466;6.806;2023-11-19T05:29:53;22.87;;;3.40;;
16579;SDS011;8402;51.466;6.806;2023-11-19T05:32:26;21.90;;;3.40;;
16579;SDS011;8402;51.466;6.806;2023-11-19T05:34:56;17.10;;;2.97;;
16579;SDS011;8402;51.466;6.806;2023-11-19T05:37:26;21.57;;;2.70;;
16579;SDS011;8402;51.466;6.806;2023-11-19T05:39:56;21.60;;;3.63;;
16579;SDS011;8402;51.466;6.806;2023-11-19T05:42:26;12.50;;;2.70;;
16579;SDS011;8402;51.466;6.806;2023-11-19T05:44:56;16.93;;;3.00;;
16579;SDS011;8402;51.466;6.806;2023-11-19T05:47:29;20.80;;;3.13;;
16579;SDS011;8402;51.466;6.806;2023-11-19T05:49:59;18.97;;;3.10;;
16579;SDS011;8402;51.466;6.806;2023-11-19T05:52:29;15.70;;;3.03;;
16579;SDS011;8402;51.466;6.806;2023-11-19T05:55:01;14.80;;;2.70;;
16579;SDS011;8402;51.466;6.806;2023-11-19T05:57:36;24.00;;;3.03;;
16579;SDS011;8402;51.466;6.806;2023-11-19T06:00:10;15.00;;;2.83;;
16579;SDS011;8402;51.466;6.806;2023-11-19T06:02:45;26.37;;;3.87;;
16579;SDS011;8402;51.466;6.806;2023-11-19T06:05:15;14.90;;;2.97;;
16579;SDS011;8402;51.466;6.806;2023-11-19T06:07:45;18.57;;;3.10;;
16579;SDS011;8402;51.466;6.806;2023-11-19T06:10:16;10.30;;;2.37;;
16579;SDS011;8402;51.466;6.806;2023-11-19T06:12:47;20.93;;;2.77;;
16579;SDS011;8402;51.466;6.806;2023-11-19T06:15:22;19.20;;;3.40;;
16579;SDS011;8402;51.466;6.806;2023-11-19T06:17:55;14.10;;;2.93;;
16579;SDS011;8402;51.466;6.806;2023-11-19T06:20:27;34.50;;;3.77;;
16579;SDS011;8402;51.466;6.806;2023-11-19T06:23:09;18.33;;;3.43;;
16579;SDS011;8402;51.466;6.806;2023-11-19T06:25:39;16.27;;;2.47;;
16579;SDS011;8402;51.466;6.806;2023-11-19T06:28:09;14.27;;;2.90;;
16579;SDS011;8402;51.466;6.806;2023-11-19T06:30:40;12.17;;;3.00;;
16579;SDS011;8402;51.466;6.806;2023-11-19T06:33:17;18.97;;;3.00;;
16579;SDS011;8402;51.466;6.806;2023-11-19T06:35:47;14.83;;;2.70;;
16579;SDS011;8402;51.466;6.806;2023-11-19T06:38:16;17.33;;;3.23;;
16579;SDS011;8402;51.466;6.806;2023-11-19T06:40:46;18.93;;;2.67;;
16579;SDS011;8402;51.466;6.806;2023-11-19T06:43:20;21.47;;;3.40;;
16579;SDS011;8402;51.466;6.806;2023-11-19T06:45:50;16.30;;;2.57;;
16579;SDS011;8402;51.466;6.806;2023-11-19T06:48:22;13.17;;;2.97;;
16579;SDS011;8402;51.466;6.806;2023-11-19T06:50:52;20.00;;;3.30;;
16579;SDS011;8402;51.466;6.806;2023-11-19T06:53:22;22.67;;;3.07;;
16579;SDS011;8402;51.466;6.806;2023-11-19T06:55:54;17.77;;;3.10;;
16579;SDS011;8402;51.466;6.806;2023-11-19T06:58:24;23.80;;;3.87;;
16579;SDS011;8402;51.466;6.806;2023-11-19T07:00:54;18.20;;;2.57;;
16579;SDS011;8402;51.466;6.806;2023-11-19T07:03:27;18.17;;;3.33;;
16579;SDS011;8402;51.466;6.806;2023-11-19T07:05:57;20.73;;;2.73;;
16579;SDS011;8402;51.466;6.806;2023-11-19T07:08:27;18.80;;;2.57;;
16579;SDS011;8402;51.466;6.806;2023-11-19T07:10:56;26.93;;;3.20;;
16579;SDS011;8402;51.466;6.806;2023-11-19T07:13:26;18.67;;;3.00;;
16579;SDS011;8402;51.466;6.806;2023-11-19T07:15:57;18.13;;;2.97;;
16579;SDS011;8402;51.466;6.806;2023-11-19T07:18:30;18.03;;;2.47;;
16579;SDS011;8402;51.466;6.806;2023-11-19T07:21:02;11.47;;;2.97;;
16579;SDS011;8402;51.466;6.806;2023-11-19T07:23:32;27.47;;;3.40;;
16579;SDS011;8402;51.466;6.806;2023-11-19T07:26:04;17.77;;;2.77;;
16579;SDS011;8402;51.466;6.806;2023-11-19T07:28:39;25.87;;;3.63;;
16579;SDS011;8402;51.466;6.806;2023-11-19T07:31:12;15.50;;;2.80;;
16579;SDS011;8402;51.466;6.806;2023-11-19T07:33:45;15.37;;;3.17;;
16579;SDS011;8402;51.466;6.806;2023-11-19T07:36:15;28.17;;;4.40;;
16579;SDS011;8402;51.466;6.806;2023-11-19T07:38:45;21.83;;;3.53;;
16579;SDS011;8402;51.466;6.806;2023-11-19T07:41:17;19.97;;;3.07;;
16579;SDS011;8402;51.466;6.806;2023-11-19T07:43:47;21.20;;;3.50;;
16579;SDS011;8402;51.466;6.806;2023-11-19T07:46:18;23.93;;;2.93;;
16579;SDS011;8402;51.466;6.806;2023-11-19T07:48:54;17.73;;;3.30;;
16579;SDS011;8402;51.466;6.806;2023-11-19T07:51:24;33.13;;;3.70;;
16579;SDS011;8402;51.466;6.806;2023-11-19T07:53:54;22.17;;;2.97;;
16579;SDS011;8402;51.466;6.806;2023-11-19T07:56:24;20.00;;;2.90;;
16579;SDS011;8402;51.466;6.806;2023-11-19T07:58:54;20.37;;;2.80;;
16579;SDS011;8402;51.466;6.806;2023-11-19T08:01:24;13.07;;;3.10;;
16579;SDS011;8402;51.466;6.806;2023-11-19T08:03:56;14.67;;;2.23;;
16579;SDS011;8402;51.466;6.806;2023-11-19T08:06:28;25.47;;;3.33;;
16579;SDS011;8402;51.466;6.806;2023-11-19T08:08:59;17.17;;;3.03;;
16579;SDS011;8402;51.466;6.806;2023-11-19T08:11:29;18.37;;;2.60;;
16579;SDS011;8402;51.466;6.806;2023-11-19T08:13:59;21.37;;;3.03;;
16579;SDS011;8402;51.466;6.806;2023-11-19T08:16:29;20.57;;;3.63;;
16579;SDS011;8402;51.466;6.806;2023-11-19T08:19:01;27.20;;;3.63;;
16579;SDS011;8402;51.466;6.806;2023-11-19T08:21:32;22.60;;;3.20;;
16579;SDS011;8402;51.466;6.806;2023-11-19T08:24:02;21.37;;;3.10;;
16579;SDS011;8402;51.466;6.806;2023-11-19T08:26:33;26.73;;;3.77;;
16579;SDS011;8402;51.466;6.806;2023-11-19T08:29:03;19.93;;;3.50;;
16579;SDS011;8402;51.466;6.806;2023-11-19T08:31:33;26.40;;;3.03;;
16579;SDS011;8402;51.466;6.806;2023-11-19T08:34:05;23.53;;;2.63;;
16579;SDS011;8402;51.466;6.806;2023-11-19T08:36:36;19.20;;;2.47;;
16579;SDS011;8402;51.466;6.806;2023-11-19T08:39:06;13.77;;;2.93;;
16579;SDS011;8402;51.466;6.806;2023-11-19T08:41:36;18.17;;;2.77;;
16579;SDS011;8402;51.466;6.806;2023-11-19T08:44:08;18.03;;;3.47;;
16579;SDS011;8402;51.466;6.806;2023-11-19T08:46:38;18.00;;;3.13;;
16579;SDS011;8402;51.466;6.806;2023-11-19T08:49:11;25.50;;;3.23;;
16579;SDS011;8402;51.466;6.806;2023-11-19T08:51:41;24.43;;;3.17;;
16579;SDS011;8402;51.466;6.806;2023-11-19T08:54:12;23.67;;;3.40;;
16579;SDS011;8402;51.466;6.806;2023-11-19T08:56:42;28.93;;;3.87;;
16579;SDS011;8402;51.466;6.806;2023-11-19T08:59:12;20.00;;;3.07;;
16579;SDS011;8402;51.466;6.806;2023-11-19T09:01:43;14.47;;;2.60;;
16579;SDS011;8402;51.466;6.806;2023-11-19T09:04:16;20.87;;;3.60;;
16579;SDS011;8402;51.466;6.806;2023-11-19T09:06:49;19.23;;;3.00;;
16579;SDS011;8402;51.466;6.806;2023-11-19T09:09:19;16.30;;;2.67;;
16579;SDS011;8402;51.466;6.806;2023-11-19T09:11:49;15.50;;;2.87;;
16579;SDS011;8402;51.466;6.806;2023-11-19T09:14:22;21.23;;;2.73;;
16579;SDS011;8402;51.466;6.806;2023-11-19T09:16:52;24.40;;;3.53;;
16579;SDS011;8402;51.466;6.806;2023-11-19T09:19:25;18.80;;;3.03;;
16579;SDS011;8402;51.466;6.806;2023-11-19T09:21:55;18.00;;;3.17;;
16579;SDS011;8402;51.466;6.806;2023-11-19T09:24:25;21.70;;;3.37;;
16579;SDS011;8402;51.466;6.806;2023-11-19T09:26:55;25.23;;;3.67;;
16579;SDS011;8402;51.466;6.806;2023-11-19T09:29:26;18.80;;;3.03;;
16579;SDS011;8402;51.466;6.806;2023-11-19T09:31:57;17.37;;;3.23;;
16579;SDS011;8402;51.466;6.806;2023-11-19T09:34:30;21.80;;;3.20;;
16579;SDS011;8402;51.466;6.806;2023-11-19T09:37:01;21.53;;;3.70;;
16579;SDS011;8402;51.466;6.806;2023-11-19T09:39:46;17.93;;;2.60;;
16579;SDS011;8402;51.466;6.806;2023-11-19T09:42:16;13.23;;;2.90;;
16579;SDS011;8402;51.466;6.806;2023-11-19T09:44:48;22.30;;;3.27;;
16579;SDS011;8402;51.466;6.806;2023-11-19T09:47:19;28.13;;;3.50;;
16579;SDS011;8402;51.466;6.806;2023-11-19T09:49:52;27.67;;;3.70;;
16579;SDS011;8402;51.466;6.806;2023-11-19T09:52:24;21.07;;;3.40;;
16579;SDS011;8402;51.466;6.806;2023-11-19T09:54:54;21.40;;;4.00;;
16579;SDS011;8402;51.466;6.806;2023-11-19T09:57:25;23.33;;;3.70;;
16579;SDS011;8402;51.466;6.806;2023-11-19T09:59:55;23.97;;;3.40;;
16579;SDS011;8402;51.466;6.806;2023-11-19T10:02:25;23.80;;;3.33;;
16579;SDS011;8402;51.466;6.806;2023-11-19T10:05:03;24.40;;;3.87;;
16579;SDS011;8402;51.466;6.806;2023-11-19T10:07:36;27.77;;;3.17;;
16579;SDS011;8402;51.466;6.806;2023-11-19T10:10:07;20.60;;;3.50;;
16579;SDS011;8402;51.466;6.806;2023-11-19T10:12:41;15.37;;;2.90;;
16579;SDS011;8402;51.466;6.806;2023-11-19T10:15:21;29.00;;;3.87;;
16579;SDS011;8402;51.466;6.806;2023-11-19T10:17:54;19.13;;;3.20;;
16579;SDS011;8402;51.466;6.806;2023-11-19T10:20:27;13.97;;;3.30;;
16579;SDS011;8402;51.466;6.806;2023-11-19T10:22:57;22.40;;;4.30;;
16579;SDS011;8402;51.466;6.806;2023-11-19T10:25:28;21.23;;;4.33;;
16579;SDS011;8402;51.466;6.806;2023-11-19T10:27:59;20.63;;;3.50;;
16579;SDS011;8402;51.466;6.806;2023-11-19T10:30:30;24.77;;;3.80;;
16579;SDS011;8402;51.466;6.806;2023-11-19T10:33:04;24.70;;;3.60;;
16579;SDS011;8402;51.466;6.806;2023-11-19T10:35:50;23.07;;;3.73;;
16579;SDS011;8402;51.466;6.806;2023-11-19T10:38:25;24.07;;;3.77;;
16579;SDS011;8402;51.466;6.806;2023-11-19T10:40:55;26.67;;;3.90;;
16579;SDS011;8402;51.466;6.806;2023-11-19T10:43:26;16.33;;;3.77;;
16579;SDS011;8402;51.466;6.806;2023-11-19T10:45:59;25.13;;;4.10;;
16579;SDS011;8402;51.466;6.806;2023-11-19T10:48:47;23.47;;;4.23;;
16579;SDS011;8402;51.466;6.806;2023-11-19T10:51:20;17.93;;;3.87;;
16579;SDS011;8402;51.466;6.806;2023-11-19T10:53:50;24.20;;;4.57;;
16579;SDS011;8402;51.466;6.806;2023-11-19T10:56:23;18.93;;;3.47;;
16579;SDS011;8402;51.466;6.806;2023-11-19T10:58:57;26.33;;;3.57;;
16579;SDS011;8402;51.466;6.806;2023-11-19T11:01:47;23.20;;;3.33;;
16579;SDS011;8402;51.466;6.806;2023-11-19T11:04:22;13.03;;;3.10;;
16579;SDS011;8402;51.466;6.806;2023-11-19T11:06:57;19.00;;;3.83;;
16579;SDS011;8402;51.466;6.806;2023-11-19T11:09:30;11.67;;;3.23;;
16579;SDS011;8402;51.466;6.806;2023-11-19T11:12:01;23.90;;;3.23;;
16579;SDS011;8402;51.466;6.806;2023-11-19T11:14:35;20.33;;;3.03;;
16579;SDS011;8402;51.466;6.806;2023-11-19T11:17:07;25.23;;;3.57;;
16579;SDS011;8402;51.466;6.806;2023-11-19T11:19:42;20.30;;;3.83;;
16579;SDS011;8402;51.466;6.806;2023-11-19T11:22:15;27.23;;;3.63;;
16579;SDS011;8402;51.466;6.806;2023-11-19T11:25:06;21.77;;;3.83;;
16579;SDS011;8402;51.466;6.806;2023-11-19T11:27:49;16.37;;;3.23;;
16579;SDS011;8402;51.466;6.806;2023-11-19T11:30:31;16.30;;;2.67;;
16579;SDS011;8402;51.466;6.806;2023-11-19T11:33:12;21.37;;;3.37;;
16579;SDS011;8402;51.466;6.806;2023-11-19T11:35:55;22.43;;;3.20;;
16579;SDS011;8402;51.466;6.806;2023-11-19T11:38:38;17.13;;;2.67;;
16579;SDS011;8402;51.466;6.806;2023-11-19T11:41:18;18.60;;;3.40;;
16579;SDS011;8402;51.466;6.806;2023-11-19T11:43:53;22.17;;;3.33;;
16579;SDS011;8402;51.466;6.806;2023-11-19T11:49:27;19.00;;;3.33;;
16579;SDS011;8402;51.466;6.806;2023-11-19T11:52:02;12.67;;;2.50;;
16579;SDS011;8402;51.466;6.806;2023-11-19T11:54:43;13.97;;;2.93;;
16579;SDS011;8402;51.466;6.806;2023-11-19T11:57:14;13.67;;;2.33;;
16579;SDS011;8402;51.466;6.806;2023-11-19T11:59:46;21.27;;;3.73;;
16579;SDS011;8402;51.466;6.806;2023-11-19T12:02:18;18.27;;;3.17;;
16579;SDS011;8402;51.466;6.806;2023-11-19T12:04:49;14.60;;;2.70;;
16579;SDS011;8402;51.466;6.806;2023-11-19T12:07:21;17.27;;;2.87;;
16579;SDS011;8402;51.466;6.806;2023-11-19T12:10:05;15.33;;;2.40;;
16579;SDS011;8402;51.466;6.806;2023-11-19T12:12:39;18.47;;;3.03;;
16579;SDS011;8402;51.466;6.806;2023-11-19T12:15:09;13.10;;;2.83;;
16579;SDS011;8402;51.466;6.806;2023-11-19T12:17:42;15.53;;;2.43;;
16579;SDS011;8402;51.466;6.806;2023-11-19T12:20:17;15.77;;;3.03;;
16579;SDS011;8402;51.466;6.806;2023-11-19T12:22:51;20.73;;;3.00;;
16579;SDS011;8402;51.466;6.806;2023-11-19T12:25:27;18.27;;;3.00;;
16579;SDS011;8402;51.466;6.806;2023-11-19T12:27:58;19.00;;;3.33;;
16579;SDS011;8402;51.466;6.806;2023-11-19T12:30:31;16.63;;;3.67;;
16579;SDS011;8402;51.466;6.806;2023-11-19T12:33:07;17.83;;;2.90;;
16579;SDS011;8402;51.466;6.806;2023-11-19T12:35:38;13.07;;;2.27;;
16579;SDS011;8402;51.466;6.806;2023-11-19T12:38:17;16.70;;;3.67;;
16579;SDS011;8402;51.466;6.806;2023-11-19T12:40:50;18.27;;;3.10;;
16579;SDS011;8402;51.466;6.806;2023-11-19T12:43:38;17.87;;;3.30;;
16579;SDS011;8402;51.466;6.806;2023-11-19T12:46:18;25.77;;;3.30;;
16579;SDS011;8402;51.466;6.806;2023-11-19T12:48:50;18.07;;;3.27;;
16579;SDS011;8402;51.466;6.806;2023-11-19T12:51:20;22.50;;;2.93;;
16579;SDS011;8402;51.466;6.806;2023-11-19T12:53:51;13.50;;;2.90;;
16579;SDS011;8402;51.466;6.806;2023-11-19T12:56:26;17.43;;;2.70;;
16579;SDS011;8402;51.466;6.806;2023-11-19T12:58:56;11.93;;;1.90;;
16579;SDS011;8402;51.466;6.806;2023-11-19T13:01:26;15.17;;;2.40;;
16579;SDS011;8402;51.466;6.806;2023-11-19T13:03:57;12.93;;;2.33;;
16579;SDS011;8402;51.466;6.806;2023-11-19T13:06:27;8.17;;;1.53;;
16579;SDS011;8402;51.466;6.806;2023-11-19T13:08:56;10.30;;;2.30;;
16579;SDS011;8402;51.466;6.806;2023-11-19T13:11:35;18.83;;;2.63;;
16579;SDS011;8402;51.466;6.806;2023-11-19T13:14:07;9.90;;;2.77;;
16579;SDS011;8402;51.466;6.806;2023-11-19T13:16:38;9.93;;;2.00;;
16579;SDS011;8402;51.466;6.806;2023-11-19T13:19:09;9.20;;;2.33;;
16579;SDS011;8402;51.466;6.806;2023-11-19T13:21:39;12.97;;;2.20;;
16579;SDS011;8402;51.466;6.806;2023-11-19T13:24:10;13.13;;;2.50;;
16579;SDS011;8402;51.466;6.806;2023-11-19T13:26:43;14.33;;;2.77;;
16579;SDS011;8402;51.466;6.806;2023-11-19T13:29:13;12.37;;;2.33;;
16579;SDS011;8402;51.466;6.806;2023-11-19T13:31:42;10.93;;;1.80;;
16579;SDS011;8402;51.466;6.806;2023-11-19T13:34:13;14.10;;;1.97;;
16579;SDS011;8402;51.466;6.806;2023-11-19T13:36:43;16.27;;;2.67;;
16579;SDS011;8402;51.466;6.806;2023-11-19T13:39:13;15.27;;;2.77;;
16579;SDS011;8402;51.466;6.806;2023-11-19T13:41:52;9.30;;;2.10;;
16579;SDS011;8402;51.466;6.806;2023-11-19T13:44:39;14.30;;;2.60;;
16579;SDS011;8402;51.466;6.806;2023-11-19T13:47:09;13.00;;;2.80;;
16579;SDS011;8402;51.466;6.806;2023-11-19T13:49:40;17.43;;;3.13;;
16579;SDS011;8402;51.466;6.806;2023-11-19T13:52:10;16.23;;;2.77;;
16579;SDS011;8402;51.466;6.806;2023-11-19T13:54:40;12.20;;;2.87;;
16579;SDS011;8402;51.466;6.806;2023-11-19T13:57:13;17.27;;;2.90;;
16579;SDS011;8402;51.466;6.806;2023-11-19T13:59:43;12.53;;;2.60;;
16579;SDS011;8402;51.466;6.806;2023-11-19T14:02:13;15.20;;;2.53;;
16579;SDS011;8402;51.466;6.806;2023-11-19T14:04:43;14.07;;;2.40;;
16579;SDS011;8402;51.466;6.806;2023-11-19T14:07:13;21.07;;;3.40;;
16579;SDS011;8402;51.466;6.806;2023-11-19T14:09:42;16.73;;;2.43;;
16579;SDS011;8402;51.466;6.806;2023-11-19T14:12:15;12.97;;;2.90;;
16579;SDS011;8402;51.466;6.806;2023-11-19T14:14:45;19.80;;;3.07;;
16579;SDS011;8402;51.466;6.806;2023-11-19T14:17:15;15.60;;;2.50;;
16579;SDS011;8402;51.466;6.806;2023-11-19T14:19:47;12.13;;;2.57;;
16579;SDS011;8402;51.466;6.806;2023-11-19T14:22:17;15.60;;;2.63;;
16579;SDS011;8402;51.466;6.806;2023-11-19T14:24:47;10.43;;;2.40;;
16579;SDS011;8402;51.466;6.806;2023-11-19T14:27:20;14.53;;;2.90;;
16579;SDS011;8402;51.466;6.806;2023-11-19T14:29:50;17.20;;;2.73;;
16579;SDS011;8402;51.466;6.806;2023-11-19T14:32:20;15.10;;;2.80;;
16579;SDS011;8402;51.466;6.806;2023-11-19T14:34:50;18.00;;;3.07;;
16579;SDS011;8402;51.466;6.806;2023-11-19T14:37:20;11.40;;;2.60;;
16579;SDS011;8402;51.466;6.806;2023-11-19T14:39:50;10.40;;;2.10;;
16579;SDS011;8402;51.466;6.806;2023-11-19T14:42:23;15.97;;;3.00;;
16579;SDS011;8402;51.466;6.806;2023-11-19T14:44:53;16.27;;;3.33;;
16579;SDS011;8402;51.466;6.806;2023-11-19T14:47:26;17.30;;;2.93;;
16579;SDS011;8402;51.466;6.806;2023-11-19T14:49:57;12.60;;;2.97;;
16579;SDS011;8402;51.466;6.806;2023-11-19T14:52:27;14.80;;;2.40;;
16579;SDS011;8402;51.466;6.806;2023-11-19T14:54:57;16.83;;;2.73;;
16579;SDS011;8402;51.466;6.806;2023-11-19T14:57:30;11.93;;;2.60;;
16579;SDS011;8402;51.466;6.806;2023-11-19T15:00:00;16.60;;;3.20;;
16579;SDS011;8402;51.466;6.806;2023-11-19T15:02:40;13.23;;;2.63;;
16579;SDS011;8402;51.466;6.806;2023-11-19T15:05:10;12.27;;;3.10;;
16579;SDS011;8402;51.466;6.806;2023-11-19T15:07:40;14.33;;;3.23;;
16579;SDS011;8402;51.466;6.806;2023-11-19T15:10:10;15.20;;;2.97;;
16579;SDS011;8402;51.466;6.806;2023-11-19T15:12:42;14.03;;;2.53;;
16579;SDS011;8402;51.466;6.806;2023-11-19T15:15:12;9.97;;;3.13;;
16579;SDS011;8402;51.466;6.806;2023-11-19T15:18:01;8.17;;;2.57;;
16579;SDS011;8402;51.466;6.806;2023-11-19T15:20:31;10.93;;;2.60;;
16579;SDS011;8402;51.466;6.806;2023-11-19T15:23:02;15.77;;;3.07;;
16579;SDS011;8402;51.466;6.806;2023-11-19T15:25:34;18.77;;;3.70;;